createdAt,value
2022-08-12T00:00:36.000Z,64.59
2022-08-12T00:00:36.000Z,64.59
2022-08-12T00:01:36.000Z,63.59
2022-08-12T00:01:36.000Z,63.59
2022-08-12T00:02:36.000Z,63.99
2022-08-12T00:02:36.000Z,63.99
2022-08-12T00:03:36.000Z,63.28
2022-08-12T00:03:36.000Z,63.28
2022-08-12T00:04:36.000Z,62.21
2022-08-12T00:04:36.000Z,62.21
2022-08-12T00:05:36.000Z,60.80
2022-08-12T00:06:36.000Z,59.08
2022-08-12T00:07:36.000Z,58.78
2022-08-12T00:08:36.000Z,59.39
2022-08-12T00:09:36.000Z,59.48
2022-08-12T00:10:36.000Z,60.09
2022-08-12T00:11:36.000Z,62.51
2022-08-12T00:12:36.000Z,64.12
2022-08-12T00:13:36.000Z,66.03
2022-08-12T00:14:36.000Z,66.77
2022-08-12T00:21:53.000Z,67.17
2022-08-12T00:21:53.000Z,67.07
2022-08-12T00:21:53.000Z,67.17
2022-08-12T00:21:53.000Z,67.07
2022-08-12T00:22:53.000Z,67.10
2022-08-12T00:22:53.000Z,67.10
2022-08-12T00:23:53.000Z,67.60
2022-08-12T00:23:53.000Z,67.60
2022-08-12T00:24:53.000Z,67.91
2022-08-12T00:24:53.000Z,67.91
2022-08-12T00:25:53.000Z,65.59
2022-08-12T00:26:53.000Z,64.28
2022-08-12T00:27:53.000Z,64.38
2022-08-12T00:28:53.000Z,64.58
2022-08-12T00:29:53.000Z,65.59
2022-08-12T00:30:53.000Z,65.79
2022-08-12T00:31:53.000Z,63.57
2022-08-12T00:32:53.000Z,61.36
2022-08-12T00:33:53.000Z,61.05
2022-08-12T00:34:53.000Z,61.69
2022-08-12T00:35:53.000Z,64.38
2022-08-12T00:36:53.000Z,65.79
2022-08-12T00:37:53.000Z,65.22
2022-08-12T00:38:53.000Z,65.22
2022-08-12T00:39:53.000Z,65.72
2022-08-12T00:40:53.000Z,65.62
2022-08-12T00:41:53.000Z,64.61
2022-08-12T00:42:53.000Z,62.90
2022-08-12T00:43:53.000Z,61.89
2022-08-12T00:44:53.000Z,61.18
2022-08-12T00:45:53.000Z,60.28
2022-08-12T00:46:53.000Z,60.48
2022-08-12T00:47:53.000Z,65.01
2022-08-12T00:48:53.000Z,67.84
2022-08-12T00:49:53.000Z,68.24
2022-08-12T00:50:53.000Z,68.34
2022-08-12T00:51:53.000Z,68.85
2022-08-12T00:52:53.000Z,68.14
2022-08-12T00:53:53.000Z,68.04
2022-08-12T00:54:53.000Z,67.43
2022-08-12T00:55:53.000Z,67.33
2022-08-12T00:56:53.000Z,68.14
2022-08-12T00:57:53.000Z,68.74
2022-08-12T00:58:53.000Z,68.85
2022-08-12T00:59:53.000Z,66.76
2022-08-12T01:00:53.000Z,68.48
2022-08-12T01:01:53.000Z,70.39
2022-08-12T01:02:53.000Z,70.79
2022-08-12T01:03:53.000Z,69.48
2022-08-12T01:04:53.000Z,66.16
2022-08-12T01:05:53.000Z,66.05
2022-08-12T01:06:53.000Z,67.36
2022-08-12T01:07:53.000Z,69.08
2022-08-12T01:08:53.000Z,68.77
2022-08-12T01:09:53.000Z,67.16
2022-08-12T01:10:53.000Z,67.87
2022-08-12T01:11:53.000Z,68.88
2022-08-12T01:12:53.000Z,69.59
2022-08-12T01:13:53.000Z,70.49
2022-08-12T01:14:53.000Z,70.89
2022-08-12T01:15:53.000Z,71.00
2022-08-12T01:16:53.000Z,70.42
2022-08-12T01:17:53.000Z,70.29
2022-08-12T01:18:53.000Z,69.92
2022-08-12T01:19:53.000Z,70.02
2022-08-12T01:20:53.000Z,69.62
2022-08-12T01:21:53.000Z,68.91
2022-08-12T01:22:53.000Z,68.81
2022-08-12T01:23:52.000Z,68.51
2022-08-12T01:24:52.000Z,67.50
2022-08-12T01:25:52.000Z,66.08
2022-08-12T01:26:52.000Z,65.28
2022-08-12T01:27:52.000Z,65.88
2022-08-12T01:28:52.000Z,66.59
2022-08-12T01:29:52.000Z,66.79
2022-08-12T01:30:52.000Z,69.42
2022-08-12T01:30:52.000Z,69.42
2022-08-12T01:31:52.000Z,70.32
2022-08-12T01:31:52.000Z,70.32
2022-08-12T01:32:52.000Z,70.53
2022-08-12T01:32:52.000Z,70.53
2022-08-12T01:33:52.000Z,71.23
2022-08-12T01:33:52.000Z,71.23
2022-08-12T01:34:52.000Z,71.73
2022-08-12T01:34:52.000Z,71.73
2022-08-12T01:35:52.000Z,72.04
2022-08-12T01:36:52.000Z,72.14
2022-08-12T01:37:52.000Z,71.64
2022-08-12T01:38:52.000Z,71.73
2022-08-12T01:39:52.000Z,72.27
2022-08-12T01:40:52.000Z,72.68
2022-08-12T01:41:52.000Z,73.08
2022-08-12T01:42:52.000Z,73.18
2022-08-12T01:43:52.000Z,72.78
2022-08-12T01:44:52.000Z,71.77
2022-08-12T01:45:52.000Z,71.57
2022-08-12T01:46:52.000Z,71.77
2022-08-12T01:47:52.000Z,71.97
2022-08-12T01:48:52.000Z,72.17
2022-08-12T01:49:52.000Z,72.71
2022-08-12T01:50:52.000Z,72.17
2022-08-12T01:51:52.000Z,71.30
2022-08-12T01:52:52.000Z,71.40
2022-08-12T01:53:52.000Z,71.70
2022-08-12T01:54:52.000Z,72.51
2022-08-12T01:55:52.000Z,72.91
2022-08-12T01:56:52.000Z,73.42
2022-08-12T01:57:52.000Z,73.72
2022-08-12T01:58:52.000Z,73.93
2022-08-12T01:59:52.000Z,74.22
2022-08-12T02:00:52.000Z,74.43
2022-08-12T02:01:52.000Z,74.53
2022-08-12T02:02:52.000Z,74.93
2022-08-12T02:03:52.000Z,75.37
2022-08-12T02:04:52.000Z,75.27
2022-08-12T02:05:52.000Z,75.68
2022-08-12T02:06:52.000Z,75.98
2022-08-12T02:07:52.000Z,76.39
2022-08-12T02:08:52.000Z,76.69
2022-08-12T02:09:52.000Z,76.99
2022-08-12T02:10:52.000Z,77.23
2022-08-12T02:11:52.000Z,77.03
2022-08-12T02:12:52.000Z,77.13
2022-08-12T02:13:52.000Z,77.33
2022-08-12T02:14:52.000Z,77.23
2022-08-12T02:15:52.000Z,77.03
2022-08-12T02:16:52.000Z,76.52
2022-08-12T02:17:52.000Z,76.12
2022-08-12T02:18:52.000Z,75.81
2022-08-12T02:19:52.000Z,75.92
2022-08-12T02:20:52.000Z,76.22
2022-08-12T02:21:52.000Z,76.62
2022-08-12T02:22:52.000Z,76.93
2022-08-12T02:23:52.000Z,77.33
2022-08-12T02:24:52.000Z,77.73
2022-08-12T02:25:52.000Z,78.34
2022-08-12T02:26:52.000Z,78.24
2022-08-12T02:27:52.000Z,78.24
2022-08-12T02:28:52.000Z,78.34
2022-08-12T02:29:52.000Z,78.24
2022-08-12T02:30:52.000Z,78.34
2022-08-12T02:31:52.000Z,78.34
2022-08-12T02:32:52.000Z,78.44
2022-08-12T02:33:52.000Z,78.55
2022-08-12T02:34:52.000Z,78.44
2022-08-12T02:35:52.000Z,78.34
2022-08-12T02:36:52.000Z,78.34
2022-08-12T02:37:52.000Z,78.44
2022-08-12T02:38:52.000Z,78.44
2022-08-12T02:39:52.000Z,78.24
2022-08-12T02:40:52.000Z,78.17
2022-08-12T02:41:52.000Z,77.17
2022-08-12T02:42:52.000Z,76.26
2022-08-12T02:43:52.000Z,75.75
2022-08-12T02:44:52.000Z,75.65
2022-08-12T02:45:52.000Z,75.85
2022-08-12T02:46:52.000Z,76.26
2022-08-12T02:47:52.000Z,76.56
2022-08-12T02:48:52.000Z,77.26
2022-08-12T02:49:52.000Z,77.26
2022-08-12T02:50:52.000Z,77.61
2022-08-12T02:51:52.000Z,77.91
2022-08-12T02:52:52.000Z,78.11
2022-08-12T02:53:52.000Z,77.81
2022-08-12T02:54:52.000Z,77.71
2022-08-12T02:55:51.000Z,77.40
2022-08-12T02:56:51.000Z,77.71
2022-08-12T02:57:51.000Z,78.01
2022-08-12T02:58:51.000Z,78.01
2022-08-12T02:59:51.000Z,78.05
2022-08-12T03:00:51.000Z,78.05
2022-08-12T03:01:51.000Z,78.05
2022-08-12T03:02:51.000Z,78.01
2022-08-12T03:03:51.000Z,77.95
2022-08-12T03:04:51.000Z,77.54
2022-08-12T03:05:51.000Z,77.44
2022-08-12T03:06:51.000Z,77.24
2022-08-12T03:07:51.000Z,77.24
2022-08-12T03:08:51.000Z,77.54
2022-08-12T03:09:51.000Z,78.15
2022-08-12T03:10:51.000Z,78.66
2022-08-12T03:11:51.000Z,78.86
2022-08-12T03:12:51.000Z,78.75
2022-08-12T03:13:51.000Z,78.45
2022-08-12T03:14:51.000Z,78.55
2022-08-12T03:15:51.000Z,78.75
2022-08-12T03:16:51.000Z,78.96
2022-08-12T03:17:51.000Z,79.06
2022-08-12T03:18:51.000Z,78.96
2022-08-12T03:19:51.000Z,79.30
2022-08-12T03:20:51.000Z,79.60
2022-08-12T03:21:51.000Z,79.91
2022-08-12T03:22:51.000Z,80.41
2022-08-12T03:23:51.000Z,80.52
2022-08-12T03:24:51.000Z,80.82
2022-08-12T03:25:51.000Z,80.82
2022-08-12T03:26:51.000Z,80.92
2022-08-12T03:27:51.000Z,81.02
2022-08-12T03:28:51.000Z,81.12
2022-08-12T03:29:51.000Z,81.37
2022-08-12T03:30:51.000Z,81.26
2022-08-12T03:31:51.000Z,81.06
2022-08-12T03:32:51.000Z,80.86
2022-08-12T03:33:51.000Z,80.72
2022-08-12T03:34:51.000Z,80.65
2022-08-12T03:35:51.000Z,80.55
2022-08-12T03:36:51.000Z,80.52
2022-08-12T03:37:51.000Z,80.25
2022-08-12T03:38:51.000Z,80.15
2022-08-12T03:39:51.000Z,79.94
2022-08-12T03:40:51.000Z,79.64
2022-08-12T03:41:51.000Z,79.54
2022-08-12T03:42:51.000Z,79.44
2022-08-12T03:43:51.000Z,79.44
2022-08-12T03:44:51.000Z,79.54
2022-08-12T03:45:51.000Z,79.64
2022-08-12T03:46:51.000Z,79.85
2022-08-12T03:47:51.000Z,80.05
2022-08-12T03:48:51.000Z,80.25
2022-08-12T03:49:51.000Z,80.35
2022-08-12T03:50:51.000Z,80.35
2022-08-12T03:51:51.000Z,80.25
2022-08-12T03:52:51.000Z,80.15
2022-08-12T03:53:51.000Z,79.44
2022-08-12T03:54:51.000Z,79.44
2022-08-12T03:55:51.000Z,79.74
2022-08-12T03:56:51.000Z,79.94
2022-08-12T03:57:51.000Z,80.35
2022-08-12T03:58:51.000Z,80.76
2022-08-12T03:59:51.000Z,81.06
2022-08-12T04:00:51.000Z,81.16
2022-08-12T04:01:51.000Z,80.96
2022-08-12T04:02:51.000Z,80.76
2022-08-12T04:03:51.000Z,80.96
2022-08-12T04:04:51.000Z,80.96
2022-08-12T04:05:51.000Z,81.06
2022-08-12T04:06:51.000Z,80.86
2022-08-12T04:07:51.000Z,80.86
2022-08-12T04:08:51.000Z,80.76
2022-08-12T04:09:51.000Z,80.65
2022-08-12T04:10:51.000Z,80.45
2022-08-12T04:11:51.000Z,80.29
2022-08-12T04:12:51.000Z,79.94
2022-08-12T04:13:51.000Z,79.94
2022-08-12T04:14:51.000Z,80.15
2022-08-12T04:15:51.000Z,80.45
2022-08-12T04:16:51.000Z,80.86
2022-08-12T04:17:51.000Z,81.32
2022-08-12T04:18:51.000Z,81.52
2022-08-12T04:19:51.000Z,81.93
2022-08-12T04:20:51.000Z,81.73
2022-08-12T04:21:51.000Z,81.52
2022-08-12T04:22:51.000Z,81.18
2022-08-12T04:23:51.000Z,80.78
2022-08-12T04:24:51.000Z,80.47
2022-08-12T04:25:51.000Z,80.68
2022-08-12T04:26:51.000Z,80.13
2022-08-12T04:27:50.000Z,80.84
2022-08-12T04:28:50.000Z,81.15
2022-08-12T04:29:50.000Z,81.11
2022-08-12T04:30:50.000Z,80.71
2022-08-12T04:31:50.000Z,80.50
2022-08-12T04:32:50.000Z,80.87
2022-08-12T04:33:50.000Z,80.77
2022-08-12T04:34:50.000Z,80.77
2022-08-12T04:35:50.000Z,79.86
2022-08-12T04:36:50.000Z,79.62
2022-08-12T04:37:50.000Z,79.41
2022-08-12T04:38:50.000Z,78.17
2022-08-12T04:39:50.000Z,78.97
2022-08-12T04:40:50.000Z,79.17
2022-08-12T04:41:50.000Z,79.08
2022-08-12T04:42:50.000Z,78.94
2022-08-12T04:43:50.000Z,78.53
2022-08-12T04:44:50.000Z,78.84
2022-08-12T04:45:50.000Z,78.80
2022-08-12T04:46:50.000Z,77.19
2022-08-12T04:47:50.000Z,76.38
2022-08-12T04:48:50.000Z,75.23
2022-08-12T04:49:50.000Z,73.01
2022-08-12T04:50:50.000Z,74.22
2022-08-12T04:51:50.000Z,75.13
2022-08-12T04:52:50.000Z,74.52
2022-08-12T04:53:50.000Z,73.82
2022-08-12T04:54:50.000Z,73.88
2022-08-12T04:55:50.000Z,74.29
2022-08-12T04:56:50.000Z,73.99
2022-08-12T04:57:50.000Z,73.38
2022-08-12T04:58:50.000Z,72.58
2022-08-12T04:59:50.000Z,73.18
2022-08-12T05:00:50.000Z,73.58
2022-08-12T05:01:50.000Z,73.79
2022-08-12T05:02:50.000Z,74.26
2022-08-12T05:03:50.000Z,73.25
2022-08-12T05:04:50.000Z,73.25
2022-08-12T05:05:50.000Z,72.74
2022-08-12T05:06:50.000Z,72.85
2022-08-12T05:07:50.000Z,73.21
2022-08-12T05:08:50.000Z,72.91
2022-08-12T05:09:50.000Z,72.20
2022-08-12T05:10:50.000Z,72.51
2022-08-12T05:10:50.000Z,72.51
2022-08-12T05:11:50.000Z,72.31
2022-08-12T05:11:50.000Z,72.31
2022-08-12T05:12:50.000Z,72.11
2022-08-12T05:12:50.000Z,72.11
2022-08-12T05:13:50.000Z,67.94
2022-08-12T05:13:50.000Z,67.94
2022-08-12T05:14:50.000Z,68.95
2022-08-12T05:14:50.000Z,68.95
2022-08-12T05:15:50.000Z,69.25
2022-08-12T05:16:50.000Z,68.24
2022-08-12T05:17:50.000Z,67.94
2022-08-12T05:18:50.000Z,68.51
2022-08-12T05:19:50.000Z,68.41
2022-08-12T05:20:50.000Z,67.51
2022-08-12T05:21:50.000Z,66.91
2022-08-12T05:22:50.000Z,66.20
2022-08-12T05:23:50.000Z,66.47
2022-08-12T05:24:50.000Z,67.07
2022-08-12T05:25:50.000Z,66.97
2022-08-12T05:26:50.000Z,66.84
2022-08-12T05:27:50.000Z,65.44
2022-08-12T05:28:50.000Z,66.14
2022-08-12T05:29:50.000Z,67.24
2022-08-12T05:30:50.000Z,67.71
2022-08-12T05:31:50.000Z,67.11
2022-08-12T05:32:50.000Z,66.51
2022-08-12T05:33:50.000Z,67.51
2022-08-12T05:34:50.000Z,66.98
2022-08-12T05:35:50.000Z,66.38
2022-08-12T05:36:50.000Z,65.17
2022-08-12T05:37:50.000Z,65.37
2022-08-12T05:38:50.000Z,66.08
2022-08-12T05:39:50.000Z,63.93
2022-08-12T05:40:50.000Z,64.04
2022-08-12T05:41:50.000Z,65.24
2022-08-12T05:42:50.000Z,65.01
2022-08-12T05:43:50.000Z,63.03
2022-08-12T05:44:50.000Z,63.20
2022-08-12T05:45:50.000Z,63.00
2022-08-12T05:46:50.000Z,62.60
2022-08-12T05:47:50.000Z,62.40
2022-08-12T05:48:50.000Z,62.20
2022-08-12T05:49:50.000Z,62.20
2022-08-12T05:50:50.000Z,60.77
2022-08-12T05:51:50.000Z,59.96
2022-08-12T05:52:50.000Z,62.47
2022-08-12T05:53:50.000Z,58.46
2022-08-12T05:54:50.000Z,61.67
2022-08-12T05:55:50.000Z,62.07
2022-08-12T05:56:50.000Z,60.36
2022-08-12T05:57:50.000Z,60.06
2022-08-12T05:58:50.000Z,59.36
2022-08-12T05:59:50.000Z,58.36
2022-08-12T06:00:49.000Z,59.56
2022-08-12T06:01:49.000Z,58.36
2022-08-12T06:02:49.000Z,59.96
2022-08-12T06:03:49.000Z,58.06
2022-08-12T06:04:49.000Z,58.66
2022-08-12T06:05:49.000Z,59.36
2022-08-12T06:06:49.000Z,59.06
2022-08-12T06:07:49.000Z,57.66
2022-08-12T06:08:49.000Z,58.46
2022-08-12T06:09:49.000Z,57.46
2022-08-12T06:10:49.000Z,57.63
2022-08-12T06:11:49.000Z,57.83
2022-08-12T06:12:49.000Z,59.64
2022-08-12T06:13:49.000Z,60.33
2022-08-12T06:14:49.000Z,58.40
2022-08-12T06:15:49.000Z,58.81
2022-08-12T06:16:49.000Z,57.50
2022-08-12T06:17:49.000Z,58.07
2022-08-12T06:18:49.000Z,59.08
2022-08-12T06:19:49.000Z,57.98
2022-08-12T06:20:49.000Z,58.55
2022-08-12T06:21:49.000Z,57.55
2022-08-12T06:22:49.000Z,56.22
2022-08-12T06:23:49.000Z,56.52
2022-08-12T06:24:49.000Z,57.32
2022-08-12T06:25:49.000Z,56.49
2022-08-12T06:26:49.000Z,54.99
2022-08-12T06:27:49.000Z,55.40
2022-08-12T06:28:49.000Z,56.07
2022-08-12T06:29:49.000Z,54.27
2022-08-12T06:38:05.000Z,53.74
2022-08-12T06:38:05.000Z,52.22
2022-08-12T06:39:05.000Z,52.32
2022-08-12T06:40:05.000Z,53.72
2022-08-12T06:41:05.000Z,55.21
2022-08-12T06:42:05.000Z,54.22
2022-08-12T06:43:05.000Z,53.19
2022-08-12T06:44:05.000Z,54.49
2022-08-12T06:45:05.000Z,53.89
2022-08-12T06:46:05.000Z,52.29
2022-08-12T06:47:05.000Z,52.69
2022-08-12T06:48:05.000Z,54.46
2022-08-12T06:49:05.000Z,54.57
2022-08-12T06:50:05.000Z,55.56
2022-08-12T06:51:05.000Z,53.96
2022-08-12T06:52:05.000Z,53.77
2022-08-12T06:53:05.000Z,53.14
2022-08-12T06:54:05.000Z,54.44
2022-08-12T06:55:05.000Z,55.61
2022-08-12T06:56:05.000Z,55.31
2022-08-12T06:57:05.000Z,55.31
2022-08-12T06:58:05.000Z,55.18
2022-08-12T06:59:05.000Z,52.39
2022-08-12T07:00:05.000Z,50.50
2022-08-12T07:01:05.000Z,50.40
2022-08-12T07:02:05.000Z,50.87
2022-08-12T07:03:05.000Z,50.57
2022-08-12T07:04:05.000Z,49.38
2022-08-12T07:05:05.000Z,49.38
2022-08-12T07:06:05.000Z,49.28
2022-08-12T07:07:05.000Z,45.97
2022-08-12T07:08:05.000Z,46.27
2022-08-12T07:09:05.000Z,47.27
2022-08-12T07:10:05.000Z,48.07
2022-08-12T07:11:05.000Z,46.95
2022-08-12T07:12:05.000Z,45.75
2022-08-12T07:13:05.000Z,45.65
2022-08-12T07:14:05.000Z,44.96
2022-08-12T07:15:05.000Z,45.85
2022-08-12T07:16:05.000Z,44.96
2022-08-12T07:17:05.000Z,46.45
2022-08-12T07:18:05.000Z,47.02
2022-08-12T07:19:05.000Z,46.33
2022-08-12T07:20:05.000Z,45.83
2022-08-12T07:21:05.000Z,44.93
2022-08-12T07:22:05.000Z,46.62
2022-08-12T07:23:05.000Z,44.64
2022-08-12T07:24:05.000Z,46.83
2022-08-12T07:25:05.000Z,48.22
2022-08-12T07:26:05.000Z,46.70
2022-08-12T07:27:05.000Z,45.41
2022-08-12T07:28:05.000Z,45.71
2022-08-12T07:29:05.000Z,46.19
2022-08-12T07:30:05.000Z,45.68
2022-08-12T07:31:05.000Z,45.59
2022-08-12T07:32:05.000Z,44.99
2022-08-12T07:33:05.000Z,45.29
2022-08-12T07:34:05.000Z,44.70
2022-08-12T07:35:05.000Z,46.06
2022-08-12T07:36:05.000Z,46.06
2022-08-12T07:37:05.000Z,45.47
2022-08-12T07:38:05.000Z,45.74
2022-08-12T07:39:05.000Z,45.34
2022-08-12T07:40:05.000Z,42.77
2022-08-12T07:41:05.000Z,44.23
2022-08-12T07:42:05.000Z,45.82
2022-08-12T07:43:05.000Z,44.04
2022-08-12T07:44:05.000Z,43.62
2022-08-12T07:45:05.000Z,43.22
2022-08-12T07:46:05.000Z,42.82
2022-08-12T07:46:05.000Z,42.82
2022-08-12T07:47:05.000Z,41.53
2022-08-12T07:47:05.000Z,41.53
2022-08-12T07:48:05.000Z,42.41
2022-08-12T07:48:05.000Z,42.41
2022-08-12T07:49:05.000Z,41.31
2022-08-12T07:49:05.000Z,41.31
2022-08-12T07:50:05.000Z,41.41
2022-08-12T07:50:05.000Z,41.41
2022-08-12T07:51:05.000Z,42.60
2022-08-12T07:52:05.000Z,42.80
2022-08-12T07:53:05.000Z,42.31
2022-08-12T07:54:05.000Z,43.48
2022-08-12T07:55:05.000Z,42.49
2022-08-12T07:56:05.000Z,41.20
2022-08-12T07:57:05.000Z,41.69
2022-08-12T07:58:05.000Z,42.29
2022-08-12T07:59:05.000Z,40.01
2022-08-12T08:00:05.000Z,40.50
2022-08-12T08:01:05.000Z,43.06
2022-08-12T08:01:05.000Z,43.06
2022-08-12T08:02:05.000Z,42.46
2022-08-12T08:02:05.000Z,42.46
2022-08-12T08:03:05.000Z,43.16
2022-08-12T08:03:05.000Z,43.16
2022-08-12T08:04:04.000Z,42.54
2022-08-12T08:04:04.000Z,42.54
2022-08-12T08:05:04.000Z,43.53
2022-08-12T08:05:04.000Z,43.53
2022-08-12T08:06:04.000Z,39.85
2022-08-12T08:07:04.000Z,39.65
2022-08-12T08:08:04.000Z,37.60
2022-08-12T08:09:04.000Z,38.09
2022-08-12T08:10:04.000Z,37.99
2022-08-12T08:11:04.000Z,39.37
2022-08-12T08:12:04.000Z,38.29
2022-08-12T08:13:04.000Z,40.78
2022-08-12T08:14:04.000Z,39.48
2022-08-12T08:15:04.000Z,40.56
2022-08-12T08:16:04.000Z,37.77
2022-08-12T08:17:04.000Z,36.51
2022-08-12T08:18:04.000Z,35.82
2022-08-12T08:19:04.000Z,37.49
2022-08-12T08:20:04.000Z,37.10
2022-08-12T08:21:04.000Z,37.10
2022-08-12T08:22:04.000Z,39.28
2022-08-12T08:23:04.000Z,37.60
2022-08-12T08:24:04.000Z,38.57
2022-08-12T08:25:04.000Z,37.77
2022-08-12T08:26:04.000Z,39.46
2022-08-12T08:27:04.000Z,37.56
2022-08-12T08:28:04.000Z,36.47
2022-08-12T08:29:04.000Z,36.27
2022-08-12T08:30:04.000Z,36.97
2022-08-12T08:31:04.000Z,38.23
2022-08-12T08:32:04.000Z,36.75
2022-08-12T08:33:04.000Z,36.93
2022-08-12T08:34:04.000Z,36.46
2022-08-12T08:35:04.000Z,35.47
2022-08-12T08:42:22.000Z,35.86
2022-08-12T08:42:22.000Z,35.64
2022-08-12T08:43:22.000Z,35.07
2022-08-12T08:44:22.000Z,36.06
2022-08-12T08:45:22.000Z,35.47
2022-08-12T08:53:38.000Z,35.09
2022-08-12T08:53:38.000Z,36.37
2022-08-12T08:54:38.000Z,36.67
2022-08-12T08:55:38.000Z,34.99
2022-08-12T08:56:38.000Z,37.16
2022-08-12T08:57:38.000Z,35.68
2022-08-12T08:58:38.000Z,36.85
2022-08-12T08:59:38.000Z,36.75
2022-08-12T09:00:38.000Z,36.34
2022-08-12T09:01:38.000Z,35.53
2022-08-12T09:02:38.000Z,33.84
2022-08-12T09:03:38.000Z,33.44
2022-08-12T09:04:38.000Z,32.95
2022-08-12T09:05:38.000Z,34.53
2022-08-12T09:09:55.000Z,33.94
2022-08-12T09:09:55.000Z,32.85
2022-08-12T09:09:55.000Z,32.85
2022-08-12T09:09:55.000Z,33.94
2022-08-12T09:10:55.000Z,34.53
2022-08-12T09:10:55.000Z,34.53
2022-08-12T09:11:55.000Z,32.95
2022-08-12T09:12:55.000Z,32.73
2022-08-12T09:13:55.000Z,32.93
2022-08-12T09:14:55.000Z,33.92
2022-08-12T09:15:55.000Z,31.96
2022-08-12T09:16:55.000Z,33.25
2022-08-12T09:17:55.000Z,33.06
2022-08-12T09:18:55.000Z,35.83
2022-08-12T09:19:55.000Z,35.53
2022-08-12T09:20:55.000Z,33.65
2022-08-12T09:21:55.000Z,33.84
2022-08-12T09:22:55.000Z,32.95
2022-08-12T09:23:55.000Z,33.94
2022-08-12T09:24:55.000Z,33.62
2022-08-12T09:25:55.000Z,34.31
2022-08-12T09:26:55.000Z,33.13
2022-08-12T09:27:55.000Z,33.13
2022-08-12T09:28:55.000Z,32.73
2022-08-12T09:29:55.000Z,33.13
2022-08-12T09:30:55.000Z,34.81
2022-08-12T09:31:55.000Z,34.81
2022-08-12T09:32:55.000Z,34.10
2022-08-12T09:33:55.000Z,34.39
2022-08-12T09:34:55.000Z,34.58
2022-08-12T09:35:55.000Z,33.18
2022-08-12T09:44:11.000Z,32.57
2022-08-12T09:44:11.000Z,32.97
2022-08-12T09:45:11.000Z,33.26
2022-08-12T09:46:11.000Z,32.28
2022-08-12T09:53:45.000Z,31.53
2022-08-12T09:53:45.000Z,32.82
2022-08-12T09:53:45.000Z,31.53
2022-08-12T09:53:45.000Z,32.82
2022-08-12T09:54:45.000Z,33.00
2022-08-12T09:54:45.000Z,33.00
2022-08-12T09:55:45.000Z,31.04
2022-08-12T09:55:45.000Z,31.04
2022-08-12T09:56:45.000Z,32.21
2022-08-12T09:56:45.000Z,32.21
2022-08-12T09:57:45.000Z,32.51
2022-08-12T09:58:45.000Z,32.89
2022-08-12T09:59:45.000Z,30.82
2022-08-12T10:00:45.000Z,32.51
2022-08-12T10:01:45.000Z,31.81
2022-08-12T10:02:45.000Z,33.08
2022-08-12T10:03:45.000Z,30.82
2022-08-12T10:04:45.000Z,31.41
2022-08-12T10:05:45.000Z,32.68
2022-08-12T10:06:45.000Z,32.28
2022-08-12T10:07:45.000Z,31.70
2022-08-12T10:07:45.000Z,31.70
2022-08-12T10:08:45.000Z,30.52
2022-08-12T10:08:45.000Z,30.52
2022-08-12T10:09:45.000Z,31.01
2022-08-12T10:09:45.000Z,31.01
2022-08-12T10:10:45.000Z,32.18
2022-08-12T10:10:45.000Z,32.18
2022-08-12T10:11:45.000Z,31.68
2022-08-12T10:11:45.000Z,31.68
2022-08-12T10:12:45.000Z,31.89
2022-08-12T10:13:45.000Z,31.79
2022-08-12T10:14:45.000Z,30.81
2022-08-12T10:15:45.000Z,31.41
2022-08-12T10:16:45.000Z,32.09
2022-08-12T10:19:01.000Z,33.17
2022-08-12T10:19:01.000Z,32.09
2022-08-12T10:20:01.000Z,30.22
2022-08-12T10:21:01.000Z,31.60
2022-08-12T10:22:01.000Z,30.91
2022-08-12T10:23:01.000Z,30.52
2022-08-12T10:23:01.000Z,30.52
2022-08-12T10:24:01.000Z,31.29
2022-08-12T10:24:01.000Z,31.29
2022-08-12T10:25:01.000Z,32.66
2022-08-12T10:25:01.000Z,32.66
2022-08-12T10:26:01.000Z,31.87
2022-08-12T10:26:01.000Z,31.87
2022-08-12T10:27:01.000Z,30.98
2022-08-12T10:27:01.000Z,30.98
2022-08-12T10:28:01.000Z,31.27
2022-08-12T10:29:01.000Z,30.27
2022-08-12T10:30:01.000Z,28.92
2022-08-12T10:31:01.000Z,29.70
2022-08-12T10:32:01.000Z,30.11
2022-08-12T10:39:18.000Z,31.47
2022-08-12T10:39:18.000Z,30.58
2022-08-12T10:40:18.000Z,31.47
2022-08-12T10:41:18.000Z,28.53
2022-08-12T10:42:18.000Z,29.80
2022-08-12T10:43:18.000Z,29.53
2022-08-12T10:43:18.000Z,29.53
2022-08-12T10:44:18.000Z,31.87
2022-08-12T10:44:18.000Z,31.87
2022-08-12T10:45:18.000Z,29.13
2022-08-12T10:45:18.000Z,29.13
2022-08-12T10:46:18.000Z,29.52
2022-08-12T10:46:18.000Z,29.52
2022-08-12T10:47:18.000Z,28.93
2022-08-12T10:47:18.000Z,28.93
2022-08-12T10:48:18.000Z,29.90
2022-08-12T10:49:18.000Z,30.78
2022-08-12T10:50:18.000Z,29.11
2022-08-12T10:51:17.000Z,29.80
2022-08-12T10:52:17.000Z,28.64
2022-08-12T10:54:35.000Z,31.29
2022-08-12T10:54:35.000Z,30.01
2022-08-12T10:55:35.000Z,30.22
2022-08-12T10:56:35.000Z,31.01
2022-08-12T10:57:35.000Z,31.58
2022-08-12T10:58:35.000Z,31.96
2022-08-12T10:59:35.000Z,31.45
2022-08-12T11:00:35.000Z,29.20
2022-08-12T11:01:35.000Z,29.58
2022-08-12T11:02:35.000Z,30.05
2022-08-12T11:09:50.000Z,29.32
2022-08-12T11:09:50.000Z,29.24
2022-08-12T11:10:50.000Z,27.28
2022-08-12T11:11:50.000Z,27.38
2022-08-12T11:12:50.000Z,26.79
2022-08-12T11:13:50.000Z,26.89
2022-08-12T11:13:50.000Z,26.89
2022-08-12T11:14:50.000Z,30.02
2022-08-12T11:14:50.000Z,30.02
2022-08-12T11:15:50.000Z,28.08
2022-08-12T11:15:50.000Z,28.08
2022-08-12T11:16:50.000Z,30.51
2022-08-12T11:16:50.000Z,30.51
2022-08-12T11:17:50.000Z,27.58
2022-08-12T11:17:50.000Z,27.58
2022-08-12T11:18:50.000Z,28.06
2022-08-12T11:19:50.000Z,28.75
2022-08-12T11:20:50.000Z,29.24
2022-08-12T11:21:50.000Z,28.94
2022-08-12T11:22:50.000Z,28.36
2022-08-12T11:26:08.000Z,28.16
2022-08-12T11:26:08.000Z,28.45
2022-08-12T11:26:08.000Z,28.45
2022-08-12T11:26:08.000Z,28.16
2022-08-12T11:26:08.000Z,28.45
2022-08-12T11:26:08.000Z,28.16
2022-08-12T11:27:08.000Z,29.34
2022-08-12T11:27:08.000Z,29.34
2022-08-12T11:27:08.000Z,29.34
2022-08-12T11:28:08.000Z,29.24
2022-08-12T11:28:08.000Z,29.24
2022-08-12T11:28:08.000Z,29.24
2022-08-12T11:29:08.000Z,27.87
2022-08-12T11:29:08.000Z,27.87
2022-08-12T11:30:08.000Z,28.36
2022-08-12T11:30:08.000Z,28.36
2022-08-12T11:31:08.000Z,28.38
2022-08-12T11:31:08.000Z,28.38
2022-08-12T11:32:08.000Z,28.45
2022-08-12T11:32:08.000Z,28.45
2022-08-12T11:33:08.000Z,28.16
2022-08-12T11:33:08.000Z,28.16
2022-08-12T11:34:08.000Z,28.65
2022-08-12T11:35:07.000Z,28.44
2022-08-12T11:36:07.000Z,27.37
2022-08-12T11:37:07.000Z,28.03
2022-08-12T11:38:07.000Z,26.93
2022-08-12T11:40:24.000Z,25.96
2022-08-12T11:40:24.000Z,25.96
2022-08-12T11:41:24.000Z,27.05
2022-08-12T11:42:24.000Z,28.04
2022-08-12T11:43:24.000Z,28.83
2022-08-12T11:56:57.000Z,29.24
2022-08-12T11:56:57.000Z,29.45
2022-08-12T11:57:57.000Z,30.51
2022-08-12T11:58:57.000Z,27.77
2022-08-12T11:59:57.000Z,27.00
2022-08-12T12:00:56.000Z,27.33
2022-08-12T12:01:56.000Z,27.94
2022-08-12T12:02:56.000Z,29.05
2022-08-12T12:03:56.000Z,29.85
2022-08-12T12:04:56.000Z,30.73
2022-08-12T12:04:56.000Z,30.73
2022-08-12T12:05:56.000Z,30.24
2022-08-12T12:05:56.000Z,30.24
2022-08-12T12:06:56.000Z,29.34
2022-08-12T12:06:56.000Z,29.34
2022-08-12T12:07:56.000Z,30.71
2022-08-12T12:07:56.000Z,30.71
2022-08-12T12:08:56.000Z,29.03
2022-08-12T12:08:56.000Z,29.03
2022-08-12T12:09:56.000Z,29.80
2022-08-12T12:10:56.000Z,31.54
2022-08-12T12:11:56.000Z,29.06
2022-08-12T12:12:56.000Z,29.06
2022-08-12T12:13:56.000Z,28.18
2022-08-12T12:14:56.000Z,27.10
2022-08-12T12:15:56.000Z,27.31
2022-08-12T12:16:56.000Z,27.70
2022-08-12T12:17:56.000Z,27.11
2022-08-12T12:18:56.000Z,28.78
2022-08-12T12:19:56.000Z,27.39
2022-08-12T12:20:56.000Z,28.75
2022-08-12T12:21:56.000Z,27.47
2022-08-12T12:22:56.000Z,27.08
2022-08-12T12:23:56.000Z,27.75
2022-08-12T12:28:26.000Z,26.82
2022-08-12T12:28:26.000Z,26.34
2022-08-12T12:29:26.000Z,28.89
2022-08-12T12:30:26.000Z,27.62
2022-08-12T12:31:26.000Z,27.42
2022-08-12T12:32:26.000Z,27.31
2022-08-12T12:32:26.000Z,27.31
2022-08-12T12:33:26.000Z,26.91
2022-08-12T12:33:26.000Z,26.91
2022-08-12T12:34:26.000Z,26.52
2022-08-12T12:34:26.000Z,26.52
2022-08-12T12:35:26.000Z,26.61
2022-08-12T12:35:26.000Z,26.61
2022-08-12T12:36:26.000Z,26.59